Latest Weather Observations for Tewantin

IDQ60801

Issued at 9:32 am EST Friday 15 November 2019 (issued every 10 minutes, with the page automatically refreshed every 10 minutes)

About weather observations | Map of weather stations | Latest weather observations for QLD | Other Formats
Station Details ID: 040908 Name: TEWANTIN RSL PARK Lat: -26.39 Lon: 153.04 Height: 6.4 m
Data from the previous 72 hours. | See also: Recent months at Tewantin
Date/Time
EST
Temp
°C
App
Temp
°C
Dew
Point
°C
Rel
Hum
%
Delta-T
°C
Wind Press
QNH
hPa
Press
MSL
hPa
Rain since
9am
mm
Dir  Spd
km/h
Gust
km/h
Spd
kts
Gust
kts
15/09:30am 27.8 28.9 19.6 61 5.3 N 13 19 7 10 1014.7 1014.7 0.0
15/09:00am 26.9 28.4 19.8 65 4.6 NNW 11 19 6 10 1015.0 1015.0 0.0
15/08:30am 26.6 28.7 20.9 71 3.8 NNW 11 19 6 10 1015.0 1015.0 0.0
15/08:00am 25.2 27.9 21.3 79 2.6 NNW 9 15 5 8 1015.1 1015.1 0.0
15/07:30am 24.5 28.0 22.9 91 1.1 NNW 9 13 5 7 1015.2 1015.2 0.0
15/07:00am 23.7 28.1 23.5 99 0.1 NW 6 9 3 5 1015.1 1015.1 0.0
15/06:30am 22.7 27.8 22.7 100 0.0 CALM 0 6 0 3 1014.9 1014.9 0.0
15/06:00am 21.5 25.6 21.5 100 0.0 NW 2 7 1 4 1014.7 1014.7 0.0
15/05:30am 21.2 25.5 21.2 100 0.0 CALM 0 0 0 0 1014.4 1014.4 0.0
15/05:00am 20.6 24.6 20.6 100 0.0 CALM 0 0 0 0 1014.0 1014.0 0.0
15/04:30am 20.5 24.1 20.5 100 0.0 NW 2 7 1 4 1013.6 1013.6 0.0
15/04:00am 21.2 25.1 21.2 100 0.0 SSW 2 7 1 4 1013.2 1013.2 0.0
15/03:30am 21.3 25.7 21.3 100 0.0 CALM 0 7 0 4 1013.2 1013.2 0.0
15/03:00am 21.4 25.8 21.4 100 0.0 CALM 0 0 0 0 1013.2 1013.2 0.0
15/02:30am 21.3 25.7 21.3 100 0.0 CALM 0 0 0 0 1013.4 1013.4 0.0
15/02:00am 21.1 25.3 20.9 99 0.1 CALM 0 0 0 0 1013.4 1013.4 0.0
15/01:30am 21.3 25.1 21.0 98 0.2 SSW 2 7 1 4 1013.5 1013.5 0.0
15/01:00am 21.7 24.7 21.2 97 0.3 SSW 7 7 4 4 1013.7 1013.7 0.0
15/12:30am 21.9 25.8 21.1 95 0.5 S 2 7 1 4 1014.1 1014.1 0.0
15/12:00am 22.0 25.2 21.2 95 0.5 SSW 6 9 3 5 1014.3 1014.3 0.0
 
Date/Time
EST
Temp
°C
App
Temp
°C
Dew
Point
°C
Rel
Hum
%
Delta-T
°C
Wind Press
QNH
hPa
Press
MSL
hPa
Rain since
9am
mm
Dir  Spd
km/h
Gust
km/h
Spd
kts
Gust
kts
14/11:30pm 22.0 25.0 21.2 95 0.5 SSW 7 11 4 6 1014.4 1014.4 0.0
14/11:00pm 22.4 26.2 21.7 96 0.5 SSW 4 7 2 4 1014.7 1014.7 0.0
14/10:30pm 22.1 26.3 20.9 93 0.8 CALM 0 0 0 0 1014.5 1014.5 0.0
14/10:00pm 22.2 26.3 20.7 91 1.0 CALM 0 6 0 3 1014.4 1014.4 0.0
14/09:30pm 22.2 25.3 21.0 93 0.8 WSW 6 7 3 4 1014.5 1014.5 0.0
14/09:00pm 22.0 26.2 21.0 94 0.7 CALM 0 0 0 0 1014.3 1014.3 0.0
14/08:30pm 22.1 26.8 21.9 99 0.1 CALM 0 0 0 0 1014.0 1014.0 0.0
14/08:00pm 22.0 26.3 21.2 95 0.5 CALM 0 0 0 0 1013.8 1013.8 0.0
14/07:30pm 22.2 26.3 20.8 92 0.9 CALM 0 0 0 0 1013.6 1013.6 0.0
14/07:00pm 22.5 25.5 20.8 90 1.1 N 6 9 3 5 1013.5 1013.5 0.0
14/06:30pm 22.6 24.8 19.2 81 2.2 NE 6 7 3 4 1013.3 1013.3 0.0
14/06:00pm 23.1 25.3 19.5 80 2.3 NE 7 11 4 6 1012.8 1012.8 0.0
14/05:30pm 23.6 25.2 19.1 76 2.9 NE 9 15 5 8 1012.4 1012.4 0.0
14/05:00pm 23.9 24.8 19.2 75 3.0 NE 13 22 7 12 1012.2 1012.2 0.0
14/04:30pm 24.2 24.6 19.1 73 3.3 ENE 15 22 8 12 1012.0 1012.0 0.0
14/04:00pm 24.2 24.0 17.7 67 4.1 ENE 15 22 8 12 1012.1 1012.1 0.0
14/03:30pm 25.0 24.8 17.7 64 4.6 NE 15 22 8 12 1012.0 1012.0 0.0
14/03:00pm 25.3 25.1 17.7 62 4.8 ENE 15 24 8 13 1012.3 1012.3 0.0
14/02:30pm 26.0 26.0 17.1 58 5.5 NE 13 24 7 13 1012.4 1012.4 0.0
14/02:00pm 25.9 25.4 15.9 54 6.1 ENE 13 20 7 11 1012.7 1012.7 0.0
14/01:30pm 25.9 25.7 16.7 57 5.7 NE 13 22 7 12 1013.3 1013.3 0.0
14/01:00pm 26.3 26.0 17.4 58 5.6 NE 15 24 8 13 1013.6 1013.6 0.0
14/12:30pm 25.5 24.8 16.4 57 5.6 ESE 15 22 8 12 1014.1 1014.1 0.0
14/12:00pm 25.3 24.3 15.6 55 5.9 E 15 20 8 11 1014.6 1014.6 0.0
14/11:30am 25.1 24.0 15.4 55 5.9 E 15 22 8 12 1014.9 1014.9 0.0
14/11:00am 24.9 24.2 15.5 56 5.7 ESE 13 24 7 13 1015.2 1015.2 0.0
14/10:30am 24.9 23.6 15.8 57 5.5 ESE 17 24 9 13 1015.5 1015.5 0.0
14/10:00am 25.0 24.2 16.2 58 5.4 ESE 15 24 8 13 1015.9 1015.9 0.0
14/09:30am 24.9 24.3 16.6 60 5.1 SE 15 20 8 11 1016.3 1016.3 0.0
14/09:00am 24.0 23.7 16.5 63 4.6 SE 13 19 7 10 1016.3 1016.3 0.0
14/08:30am 24.2 24.1 17.0 64 4.4 SE 13 24 7 13 1016.4 1016.4 0.0
14/08:00am 24.1 24.7 17.6 67 4.0 SE 11 19 6 10 1016.2 1016.2 0.0
14/07:30am 23.4 23.5 17.4 69 3.7 SE 13 19 7 10 1016.0 1016.0 0.0
14/07:00am 23.1 23.5 17.3 70 3.6 SE 11 20 6 11 1015.8 1015.8 0.0
14/06:30am 22.7 23.0 17.8 74 3.0 SE 13 20 7 11 1015.6 1015.6 0.0
14/06:00am 22.2 23.5 18.4 79 2.4 SSE 9 17 5 9 1015.1 1015.1 0.0
14/05:30am 21.4 22.9 18.8 85 1.6 S 9 15 5 8 1014.6 1014.6 0.0
14/05:00am 21.5 22.9 18.7 84 1.8 SSE 9 17 5 9 1014.3 1014.3 0.0
14/04:30am 21.6 23.0 18.6 83 1.9 S 9 17 5 9 1013.9 1013.9 0.0
14/04:00am 21.3 22.7 18.7 85 1.6 SSE 9 13 5 7 1013.6 1013.6 0.0
14/03:30am 21.6 23.1 19.0 85 1.6 SSE 9 13 5 7 1013.5 1013.5 0.0
14/03:00am 21.6 23.1 19.0 85 1.6 SSE 9 13 5 7 1013.5 1013.5 0.0
14/02:30am 21.7 23.3 19.1 85 1.6 SSE 9 15 5 8 1013.5 1013.5 0.0
14/02:00am 22.0 23.5 19.0 83 1.9 SSE 9 13 5 7 1013.5 1013.5 0.0
14/01:30am 22.1 23.6 18.9 82 2.0 SSE 9 15 5 8 1013.6 1013.6 0.0
14/01:00am 22.3 23.4 18.9 81 2.1 SE 11 20 6 11 1013.6 1013.6 0.0
14/12:30am 22.6 23.5 19.2 81 2.2 SE 13 20 7 11 1014.1 1014.1 0.0
14/12:00am 22.7 24.1 19.5 82 2.0 SE 11 22 6 12 1013.9 1013.9 0.0
 
Date/Time
EST
Temp
°C
App
Temp
°C
Dew
Point
°C
Rel
Hum
%
Delta-T
°C
Wind Press
QNH
hPa
Press
MSL
hPa
Rain since
9am
mm
Dir  Spd
km/h
Gust
km/h
Spd
kts
Gust
kts
13/11:30pm 22.6 23.1 19.2 81 2.2 SE 15 22 8 12 1014.0 1014.0 0.0
13/11:00pm 22.7 23.1 19.1 80 2.3 SE 15 30 8 16 1014.1 1014.1 0.0
13/10:30pm 22.8 23.8 19.4 81 2.2 SE 13 22 7 12 1014.3 1014.3 0.0
13/10:00pm 22.9 24.0 19.7 82 2.1 SE 13 24 7 13 1014.2 1014.2 0.0
13/09:30pm 23.0 23.7 19.6 81 2.2 SE 15 30 8 16 1014.0 1014.0 0.0
13/09:00pm 23.1 24.7 19.9 82 2.1 SSE 11 20 6 11 1013.8 1013.8 0.0
13/08:30pm 23.0 24.2 19.8 82 2.1 SSE 13 24 7 13 1013.4 1013.4 0.0
13/08:00pm 23.2 24.1 20.0 82 2.1 SSE 15 26 8 14 1013.0 1013.0 0.0
13/07:30pm 23.2 24.0 19.8 81 2.2 SSE 15 26 8 14 1012.5 1012.5 0.0
13/07:00pm 23.2 23.7 20.0 82 2.1 SSE 17 28 9 15 1012.2 1012.2 0.0
13/06:30pm 23.1 23.6 20.1 83 1.9 SSE 17 35 9 19 1011.7 1011.7 0.0
13/06:00pm 23.4 23.7 20.3 83 2.0 SSE 19 32 10 17 1011.1 1011.1 0.0
13/05:30pm 24.0 23.8 20.5 81 2.3 SSE 22 43 12 23 1010.2 1010.2 0.0
13/05:00pm 25.9 26.7 20.7 73 3.4 SE 17 35 9 19 1009.5 1009.5 0.0
13/04:30pm 26.9 28.5 20.7 69 4.1 ESE 13 28 7 15 1008.3 1008.3 0.0
13/04:00pm 26.5 29.0 21.0 72 3.6 E 9 22 5 12 1007.7 1007.7 0.0
13/03:30pm 26.6 26.9 20.4 69 4.1 NE 19 33 10 18 1006.8 1006.8 0.0
13/03:00pm 27.8 27.8 19.8 61 5.2 NE 19 32 10 17 1006.8 1006.8 0.0
13/02:30pm 30.4 31.4 20.3 54 6.7 NE 15 22 8 12 1007.0 1007.0 0.0
13/02:16pm 30.4 29.7 18.2 48 7.8 ENE 19 26 10 14 1007.2 1007.2 0.0
13/02:00pm 35.4 34.1 11.1 23 14.3 NW 9 20 5 11 1007.2 1007.2 0.0
13/01:30pm 34.7 33.2 11.8 25 13.6 NNW 11 20 6 11 1007.9 1007.9 0.0
13/01:00pm 34.1 32.2 11.9 26 13.2 NNW 13 22 7 12 1008.6 1008.6 0.0
13/12:30pm 33.9 32.3 12.8 28 12.7 WNW 13 26 7 14 1009.2 1009.2 0.0
13/12:00pm 33.7 33.0 13.2 29 12.4 W 9 19 5 10 1009.8 1009.8 0.0
13/11:30am 32.7 31.1 12.9 30 11.9 WNW 13 24 7 13 1010.2 1010.2 0.0
13/11:00am 31.9 30.1 13.2 32 11.2 WNW 15 28 8 15 1010.7 1010.7 0.0
13/10:30am 30.9 28.8 13.7 35 10.3 WNW 17 32 9 17 1011.0 1011.0 0.0
13/10:00am 29.4 26.7 13.6 38 9.4 NW 20 35 11 19 1011.3 1011.3 0.0
13/09:30am 29.1 26.9 14.5 41 8.8 NW 19 43 10 23 1011.4 1011.4 0.0
13/09:00am 28.8 27.6 16.0 45 7.9 WNW 17 32 9 17 1011.5 1011.5 0.0
13/08:30am 27.0 25.8 16.0 51 6.8 WNW 17 30 9 16 1011.7 1011.7 0.0
13/08:00am 26.1 25.4 16.4 55 6.0 WNW 15 32 8 17 1011.9 1011.9 0.0
13/07:30am 25.6 25.5 17.0 59 5.3 WNW 13 26 7 14 1011.9 1011.9 0.0
13/07:00am 24.6 23.7 16.8 62 4.8 NW 17 32 9 17 1012.0 1012.0 0.0
13/06:30am 23.6 22.4 17.1 67 4.0 NW 19 37 10 20 1011.8 1011.8 0.0
13/06:00am 22.5 22.2 17.4 73 3.2 NNW 15 28 8 15 1011.0 1011.0 0.0
13/05:30am 21.9 21.7 17.5 76 2.7 NW 15 30 8 16 1010.8 1010.8 0.0
13/05:00am 21.6 21.4 17.6 78 2.5 NW 15 24 8 13 1010.6 1010.6 0.0
13/04:30am 21.7 21.5 17.7 78 2.5 NW 15 28 8 15 1010.5 1010.5 0.0
13/04:00am 21.6 21.4 17.6 78 2.5 NW 15 26 8 14 1010.3 1010.3 0.0
13/03:30am 21.7 21.6 17.9 79 2.4 NW 15 24 8 13 1010.1 1010.1 0.0
13/03:00am 21.7 21.6 17.9 79 2.4 NW 15 26 8 14 1010.3 1010.3 0.0
13/02:30am 21.8 22.2 18.2 80 2.2 NW 13 22 7 12 1010.3 1010.3 0.0
13/02:00am 21.7 22.2 18.3 81 2.1 NNW 13 20 7 11 1010.4 1010.4 0.0
13/01:30am 21.9 22.7 18.1 79 2.4 NNW 11 20 6 11 1010.9 1010.9 0.0
13/01:00am 22.2 22.3 18.4 79 2.4 NNW 15 26 8 14 1011.0 1011.0 0.0
13/12:30am 22.3 21.6 18.3 78 2.5 NNW 19 32 10 17 1011.1 1011.1 0.0
13/12:00am 22.3 22.1 18.5 79 2.4 NNW 17 24 9 13 1011.8 1011.8 0.0
 
Date/Time
EST
Temp
°C
App
Temp
°C
Dew
Point
°C
Rel
Hum
%
Delta-T
°C
Wind Press
QNH
hPa
Press
MSL
hPa
Rain since
9am
mm
Dir  Spd
km/h
Gust
km/h
Spd
kts
Gust
kts
12/11:30pm 22.4 22.2 18.4 78 2.5 NNW 17 32 9 17 1011.8 1011.8 0.0
12/11:00pm 22.6 21.9 18.2 76 2.8 NNW 19 30 10 16 1011.9 1011.9 0.0
12/10:30pm 22.4 22.4 17.3 73 3.1 NNW 13 22 7 12 1012.3 1012.3 0.0
12/10:00pm 22.8 22.8 17.3 71 3.4 NNW 13 22 7 12 1012.5 1012.5 0.0
12/09:30pm 23.0 22.0 16.5 67 4.0 NNW 17 30 9 16 1012.3 1012.3 0.0
12/09:00pm 23.3 22.4 15.9 63 4.5 NNW 15 30 8 16 1012.5 1012.5 0.0
12/08:30pm 23.7 22.3 15.5 60 4.9 NNW 17 30 9 16 1012.3 1012.3 0.0
12/08:00pm 24.1 22.2 15.3 58 5.3 NNW 19 30 10 16 1012.0 1012.0 0.0
12/07:30pm 24.5 22.7 15.4 57 5.5 NNW 19 32 10 17 1011.8 1011.8 0.0
12/07:00pm 24.7 23.6 17.2 63 4.7 N 19 30 10 16 1011.6 1011.6 0.0
12/06:30pm 25.2 23.6 17.4 62 4.9 N 22 39 12 21 1011.4 1011.4 0.0
12/06:00pm 25.8 24.7 17.7 61 5.1 N 20 32 11 17 1011.1 1011.1 0.0
12/05:45pm 26.3 23.0 17.1 57 5.7 N 30 48 16 26 1011.0 1011.0 0.0
12/05:30pm 26.9 25.0 17.7 57 5.8 N 24 39 13 21 1010.8 1010.8 0.0
12/05:00pm 27.8 26.6 17.6 53 6.4 N 20 33 11 18 1010.4 1010.4 0.0
12/04:30pm 27.2 26.4 19.3 62 5.1 NNE 22 35 12 19 1010.1 1010.1 0.0
12/04:00pm 27.0 25.9 20.3 66 4.4 NNE 26 35 14 19 1010.1 1010.1 0.0
12/03:30pm 27.1 24.4 19.2 62 5.1 NNE 32 41 17 22 1010.3 1010.3 0.0
12/03:10pm 27.0 25.3 19.9 65 4.6 NNE 28 46 15 25 1010.4 1010.4 0.0
12/03:00pm 27.4 25.8 20.7 67 4.4 NNE 30 44 16 24 1010.4 1010.4 0.0
12/02:33pm 27.2 25.5 19.8 64 4.8 NNE 28 48 15 26 1010.8 1010.8 0.0
12/02:30pm 27.5 26.3 20.8 67 4.4 NNE 28 43 15 23 1010.9 1010.9 0.0
12/02:17pm 27.5 26.0 20.3 65 4.7 NNE 28 46 15 25 1011.1 1011.1 0.0
12/02:00pm 27.2 25.7 20.3 66 4.5 NNE 28 43 15 23 1011.5 1011.5 0.0
12/01:30pm 27.0 25.1 20.1 66 4.5 NNE 30 50 16 27 1011.9 1011.9 0.0
12/01:06pm 27.3 26.0 20.6 67 4.4 NNE 28 46 15 25 1012.5 1012.5 0.0
12/01:00pm 27.4 25.8 20.7 67 4.4 NNE 30 46 16 25 1012.6 1012.6 0.0
12/12:30pm 27.5 26.8 20.3 65 4.7 NNE 24 37 13 20 1013.4 1013.4 0.0
12/12:00pm 28.0 27.5 20.8 65 4.8 NNE 24 35 13 19 1013.9 1013.9 0.0
12/11:30am 27.8 27.9 20.4 64 4.9 NNE 20 33 11 18 1014.6 1014.6 0.0
12/11:00am 29.0 27.8 16.2 46 7.9 NNW 17 28 9 15 1015.1 1015.1 0.0
12/10:30am 28.5 27.3 17.4 51 7.0 N 20 33 11 18 1015.7 1015.7 0.0
12/10:00am 27.5 26.4 17.7 55 6.2 N 20 32 11 17 1016.4 1016.4 0.0

Other formats

Comma delimited format used in spreadsheet applications
http://www.bom.gov.au/fwo/IDQ60801/IDQ60801.94570.axf

JavaScript Object Notation format (JSON) in row-major order
http://www.bom.gov.au/fwo/IDQ60801/IDQ60801.94570.json

Data quality

Most of these data are generated automatically and are frequently updated. Quality checks on data are not normally performed. It is possible for incorrect values to appear. Refer to information at About Latest Weather Observations and please check the disclaimer before using these data.